Huvudsida
METAR-TAF:

METAR-TAF

Flygplatser :

Shanghai Pudong International Airport

Shanghai-Pudong, Kina

latitud: 31-07N, longitud: 121-46E, höjd: 4 m

Aktuellt väderrapport

Denna rapport gjordes för 49 minuter sedan, klockan 14:30 UTC
Vind 14 kt från nord/nordost
Temperatur 24°C
Fuktighet 69%
Tryck 1015 hPa
Sikt 10 km eller mer
Spridda moln på en höjd av 2600 ft

METAR: ZSPD 261430Z 02007MPS 9999 SCT026 24/18 Q1015 NOSIG

Tid: 23:19 (15:19 UTC)

Väderprognos

Denna rapport gjordes för 6 timmar och 3 minuter sedan, klockan 09:16 UTC
Prognos gäller från 26 kl. 12 UTC till 27 kl. 12 UTC
Vind 12 kt från nord/nordost
Sikt: 6000 m
Brutna moln på en höjd av 2000 ft

TAF: ZSPD 260916Z 2612/2712 03006MPS 6000 BKN020 TX27/2706Z TN21/2621Z

Aktuella väderrapporter och prognoser från 4000 flygplatser (METAR- och TAF-rapporter).

De tillgängliga stationerna syns som gula och röda prickar på kartan.

För musen över prickarna för att se namnen på stationerna.

Klicka sedan för att få väderrapporter och prognoser.

För att ändra kartan: Klicka på de gröna knapparna med ett svart kors på för att zooma in; den gröna knappen med ett streck på för att zooma ut; eller på de gröna pilarna för angränsande kartor.


METAR-TAF: